sensor_id;sensor_type;location;lat;lon;timestamp;P1;durP1;ratioP1;P2;durP2;ratioP2
75818;SDS011;64453;51.944;9.796;2022-12-18T00:02:22;24.67;;;15.93;;
75818;SDS011;64453;51.944;9.796;2022-12-18T00:04:49;14.20;;;11.63;;
75818;SDS011;64453;51.944;9.796;2022-12-18T00:07:16;18.77;;;15.33;;
75818;SDS011;64453;51.944;9.796;2022-12-18T00:09:43;24.97;;;17.00;;
75818;SDS011;64453;51.944;9.796;2022-12-18T00:12:09;31.80;;;20.50;;
75818;SDS011;64453;51.944;9.796;2022-12-18T00:14:38;15.97;;;11.63;;
75818;SDS011;64453;51.944;9.796;2022-12-18T00:17:05;15.30;;;11.70;;
75818;SDS011;64453;51.944;9.796;2022-12-18T00:19:32;12.53;;;11.17;;
75818;SDS011;64453;51.944;9.796;2022-12-18T00:21:59;12.33;;;11.03;;
75818;SDS011;64453;51.944;9.796;2022-12-18T00:24:26;18.93;;;14.00;;
75818;SDS011;64453;51.944;9.796;2022-12-18T00:26:53;26.83;;;16.50;;
75818;SDS011;64453;51.944;9.796;2022-12-18T00:29:19;19.70;;;14.60;;
75818;SDS011;64453;51.944;9.796;2022-12-18T00:31:48;19.23;;;13.97;;
75818;SDS011;64453;51.944;9.796;2022-12-18T00:34:15;16.50;;;11.50;;
75818;SDS011;64453;51.944;9.796;2022-12-18T00:36:42;13.30;;;11.13;;
75818;SDS011;64453;51.944;9.796;2022-12-18T00:39:09;11.53;;;10.30;;
75818;SDS011;64453;51.944;9.796;2022-12-18T00:41:37;12.00;;;9.53;;
75818;SDS011;64453;51.944;9.796;2022-12-18T00:44:21;11.20;;;9.43;;
75818;SDS011;64453;51.944;9.796;2022-12-18T00:46:50;14.87;;;10.20;;
75818;SDS011;64453;51.944;9.796;2022-12-18T00:49:17;11.03;;;9.83;;
75818;SDS011;64453;51.944;9.796;2022-12-18T00:51:46;13.70;;;11.13;;
75818;SDS011;64453;51.944;9.796;2022-12-18T00:54:13;16.23;;;11.20;;
75818;SDS011;64453;51.944;9.796;2022-12-18T00:56:40;14.17;;;11.37;;
75818;SDS011;64453;51.944;9.796;2022-12-18T00:59:07;15.43;;;13.13;;
75818;SDS011;64453;51.944;9.796;2022-12-18T01:01:34;16.33;;;10.80;;
75818;SDS011;64453;51.944;9.796;2022-12-18T01:04:03;10.30;;;9.27;;
75818;SDS011;64453;51.944;9.796;2022-12-18T01:06:31;11.03;;;9.47;;
75818;SDS011;64453;51.944;9.796;2022-12-18T01:08:58;17.90;;;12.53;;
75818;SDS011;64453;51.944;9.796;2022-12-18T01:11:26;20.23;;;14.60;;
75818;SDS011;64453;51.944;9.796;2022-12-18T01:13:53;18.50;;;12.47;;
75818;SDS011;64453;51.944;9.796;2022-12-18T01:16:20;13.50;;;9.60;;
75818;SDS011;64453;51.944;9.796;2022-12-18T01:18:50;10.53;;;9.30;;
75818;SDS011;64453;51.944;9.796;2022-12-18T01:21:21;12.60;;;9.20;;
75818;SDS011;64453;51.944;9.796;2022-12-18T01:23:50;10.13;;;9.00;;
75818;SDS011;64453;51.944;9.796;2022-12-18T01:26:18;11.20;;;9.87;;
75818;SDS011;64453;51.944;9.796;2022-12-18T01:28:46;9.80;;;8.90;;
75818;SDS011;64453;51.944;9.796;2022-12-18T01:31:14;9.73;;;8.80;;
75818;SDS011;64453;51.944;9.796;2022-12-18T01:33:45;11.00;;;8.90;;
75818;SDS011;64453;51.944;9.796;2022-12-18T01:36:16;11.70;;;9.57;;
75818;SDS011;64453;51.944;9.796;2022-12-18T01:38:46;11.90;;;8.77;;
75818;SDS011;64453;51.944;9.796;2022-12-18T01:41:14;11.73;;;8.80;;
75818;SDS011;64453;51.944;9.796;2022-12-18T01:43:45;11.90;;;9.10;;
75818;SDS011;64453;51.944;9.796;2022-12-18T01:46:17;13.67;;;11.40;;
75818;SDS011;64453;51.944;9.796;2022-12-18T01:48:55;21.30;;;14.77;;
75818;SDS011;64453;51.944;9.796;2022-12-18T01:51:25;35.17;;;23.17;;
75818;SDS011;64453;51.944;9.796;2022-12-18T01:53:55;19.03;;;14.37;;
75818;SDS011;64453;51.944;9.796;2022-12-18T01:56:23;17.60;;;12.60;;
75818;SDS011;64453;51.944;9.796;2022-12-18T01:58:52;10.73;;;9.47;;
75818;SDS011;64453;51.944;9.796;2022-12-18T02:01:24;11.60;;;8.80;;
75818;SDS011;64453;51.944;9.796;2022-12-18T02:03:52;10.33;;;9.23;;
75818;SDS011;64453;51.944;9.796;2022-12-18T02:06:20;14.50;;;10.40;;
75818;SDS011;64453;51.944;9.796;2022-12-18T02:09:01;13.10;;;10.97;;
75818;SDS011;64453;51.944;9.796;2022-12-18T02:11:37;8.87;;;7.97;;
75818;SDS011;64453;51.944;9.796;2022-12-18T02:14:14;8.77;;;7.90;;
75818;SDS011;64453;51.944;9.796;2022-12-18T02:16:51;8.87;;;7.90;;
75818;SDS011;64453;51.944;9.796;2022-12-18T02:19:29;8.10;;;7.30;;
75818;SDS011;64453;51.944;9.796;2022-12-18T02:22:17;8.73;;;7.43;;
75818;SDS011;64453;51.944;9.796;2022-12-18T02:24:57;8.70;;;7.80;;
75818;SDS011;64453;51.944;9.796;2022-12-18T02:27:37;9.23;;;7.27;;
75818;SDS011;64453;51.944;9.796;2022-12-18T02:30:08;8.77;;;7.77;;
75818;SDS011;64453;51.944;9.796;2022-12-18T02:32:36;10.20;;;8.47;;
75818;SDS011;64453;51.944;9.796;2022-12-18T02:35:09;8.80;;;7.97;;
75818;SDS011;64453;51.944;9.796;2022-12-18T02:37:40;12.27;;;7.93;;
75818;SDS011;64453;51.944;9.796;2022-12-18T02:40:09;9.37;;;7.80;;
75818;SDS011;64453;51.944;9.796;2022-12-18T02:42:40;8.77;;;7.87;;
75818;SDS011;64453;51.944;9.796;2022-12-18T02:45:08;9.00;;;7.97;;
75818;SDS011;64453;51.944;9.796;2022-12-18T02:47:37;9.90;;;8.03;;
75818;SDS011;64453;51.944;9.796;2022-12-18T02:50:10;9.00;;;7.50;;
75818;SDS011;64453;51.944;9.796;2022-12-18T02:52:46;10.80;;;8.57;;
75818;SDS011;64453;51.944;9.796;2022-12-18T02:55:28;9.60;;;8.03;;
75818;SDS011;64453;51.944;9.796;2022-12-18T02:58:12;9.70;;;7.93;;
75818;SDS011;64453;51.944;9.796;2022-12-18T03:00:43;10.70;;;8.10;;
75818;SDS011;64453;51.944;9.796;2022-12-18T03:03:18;9.30;;;8.30;;
75818;SDS011;64453;51.944;9.796;2022-12-18T03:05:56;9.13;;;8.07;;
75818;SDS011;64453;51.944;9.796;2022-12-18T03:08:28;9.67;;;7.83;;
75818;SDS011;64453;51.944;9.796;2022-12-18T03:11:00;10.80;;;8.47;;
75818;SDS011;64453;51.944;9.796;2022-12-18T03:13:33;9.33;;;8.33;;
75818;SDS011;64453;51.944;9.796;2022-12-18T03:16:04;10.20;;;8.53;;
75818;SDS011;64453;51.944;9.796;2022-12-18T03:18:36;9.27;;;8.00;;
75818;SDS011;64453;51.944;9.796;2022-12-18T03:21:08;10.00;;;8.27;;
75818;SDS011;64453;51.944;9.796;2022-12-18T03:23:39;9.60;;;7.33;;
75818;SDS011;64453;51.944;9.796;2022-12-18T03:26:10;9.70;;;8.10;;
75818;SDS011;64453;51.944;9.796;2022-12-18T03:28:44;10.63;;;8.50;;
75818;SDS011;64453;51.944;9.796;2022-12-18T03:31:15;9.10;;;8.00;;
75818;SDS011;64453;51.944;9.796;2022-12-18T03:37:22;8.70;;;7.73;;
75818;SDS011;64453;51.944;9.796;2022-12-18T03:39:49;12.37;;;9.20;;
75818;SDS011;64453;51.944;9.796;2022-12-18T03:42:17;10.03;;;9.00;;
75818;SDS011;64453;51.944;9.796;2022-12-18T03:44:54;10.20;;;9.10;;
75818;SDS011;64453;51.944;9.796;2022-12-18T03:47:30;10.60;;;9.20;;
75818;SDS011;64453;51.944;9.796;2022-12-18T03:50:03;11.70;;;9.00;;
75818;SDS011;64453;51.944;9.796;2022-12-18T03:52:40;10.80;;;8.97;;
75818;SDS011;64453;51.944;9.796;2022-12-18T03:55:14;10.40;;;8.43;;
75818;SDS011;64453;51.944;9.796;2022-12-18T03:57:43;10.60;;;8.90;;
75818;SDS011;64453;51.944;9.796;2022-12-18T04:00:14;10.63;;;9.30;;
75818;SDS011;64453;51.944;9.796;2022-12-18T04:02:46;10.43;;;9.23;;
75818;SDS011;64453;51.944;9.796;2022-12-18T04:05:18;10.47;;;8.20;;
75818;SDS011;64453;51.944;9.796;2022-12-18T04:07:47;10.90;;;8.37;;
75818;SDS011;64453;51.944;9.796;2022-12-18T04:10:15;10.47;;;9.13;;
75818;SDS011;64453;51.944;9.796;2022-12-18T04:12:43;12.10;;;9.20;;
75818;SDS011;64453;51.944;9.796;2022-12-18T04:15:10;10.60;;;8.07;;
75818;SDS011;64453;51.944;9.796;2022-12-18T04:17:41;9.83;;;8.43;;
75818;SDS011;64453;51.944;9.796;2022-12-18T04:20:14;9.60;;;8.40;;
75818;SDS011;64453;51.944;9.796;2022-12-18T04:22:41;10.70;;;8.80;;
75818;SDS011;64453;51.944;9.796;2022-12-18T04:25:09;9.50;;;8.13;;
75818;SDS011;64453;51.944;9.796;2022-12-18T04:27:36;10.90;;;9.13;;
75818;SDS011;64453;51.944;9.796;2022-12-18T04:30:03;10.00;;;8.30;;
75818;SDS011;64453;51.944;9.796;2022-12-18T04:32:32;12.20;;;8.20;;
75818;SDS011;64453;51.944;9.796;2022-12-18T04:35:01;9.47;;;8.13;;
75818;SDS011;64453;51.944;9.796;2022-12-18T04:37:29;9.53;;;8.37;;
75818;SDS011;64453;51.944;9.796;2022-12-18T04:39:56;9.53;;;8.10;;
75818;SDS011;64453;51.944;9.796;2022-12-18T04:42:23;10.30;;;8.40;;
75818;SDS011;64453;51.944;9.796;2022-12-18T04:44:50;10.13;;;8.13;;
75818;SDS011;64453;51.944;9.796;2022-12-18T04:47:17;9.50;;;8.60;;
75818;SDS011;64453;51.944;9.796;2022-12-18T04:49:44;15.47;;;12.20;;
75818;SDS011;64453;51.944;9.796;2022-12-18T04:52:12;14.60;;;10.70;;
75818;SDS011;64453;51.944;9.796;2022-12-18T04:54:39;10.40;;;8.90;;
75818;SDS011;64453;51.944;9.796;2022-12-18T04:57:06;9.17;;;8.27;;
75818;SDS011;64453;51.944;9.796;2022-12-18T04:59:33;10.20;;;7.90;;
75818;SDS011;64453;51.944;9.796;2022-12-18T05:02:00;9.33;;;7.90;;
75818;SDS011;64453;51.944;9.796;2022-12-18T05:04:27;8.67;;;7.77;;
75818;SDS011;64453;51.944;9.796;2022-12-18T05:06:54;11.57;;;8.20;;
75818;SDS011;64453;51.944;9.796;2022-12-18T05:09:22;9.83;;;8.53;;
75818;SDS011;64453;51.944;9.796;2022-12-18T05:11:49;9.17;;;8.27;;
75818;SDS011;64453;51.944;9.796;2022-12-18T05:14:16;10.00;;;8.80;;
75818;SDS011;64453;51.944;9.796;2022-12-18T05:16:43;11.10;;;8.50;;
75818;SDS011;64453;51.944;9.796;2022-12-18T05:19:10;9.90;;;8.30;;
75818;SDS011;64453;51.944;9.796;2022-12-18T05:21:37;8.93;;;8.03;;
75818;SDS011;64453;51.944;9.796;2022-12-18T05:24:04;8.87;;;7.97;;
75818;SDS011;64453;51.944;9.796;2022-12-18T05:26:33;10.83;;;8.43;;
75818;SDS011;64453;51.944;9.796;2022-12-18T05:29:00;8.90;;;8.00;;
75818;SDS011;64453;51.944;9.796;2022-12-18T05:31:27;9.60;;;7.97;;
75818;SDS011;64453;51.944;9.796;2022-12-18T05:33:54;12.03;;;8.83;;
75818;SDS011;64453;51.944;9.796;2022-12-18T05:36:21;12.40;;;8.80;;
75818;SDS011;64453;51.944;9.796;2022-12-18T05:38:48;12.70;;;9.37;;
75818;SDS011;64453;51.944;9.796;2022-12-18T05:41:15;11.40;;;8.73;;
75818;SDS011;64453;51.944;9.796;2022-12-18T05:43:43;10.00;;;9.00;;
75818;SDS011;64453;51.944;9.796;2022-12-18T05:46:11;10.00;;;9.00;;
75818;SDS011;64453;51.944;9.796;2022-12-18T05:48:40;10.40;;;8.53;;
75818;SDS011;64453;51.944;9.796;2022-12-18T05:51:08;9.60;;;8.70;;
75818;SDS011;64453;51.944;9.796;2022-12-18T05:53:38;9.97;;;8.27;;
75818;SDS011;64453;51.944;9.796;2022-12-18T05:56:06;9.47;;;8.47;;
75818;SDS011;64453;51.944;9.796;2022-12-18T05:58:35;17.30;;;8.07;;
75818;SDS011;64453;51.944;9.796;2022-12-18T06:01:08;9.37;;;8.47;;
75818;SDS011;64453;51.944;9.796;2022-12-18T06:03:38;9.50;;;8.50;;
75818;SDS011;64453;51.944;9.796;2022-12-18T06:06:12;11.30;;;8.30;;
75818;SDS011;64453;51.944;9.796;2022-12-18T06:08:40;11.43;;;8.20;;
75818;SDS011;64453;51.944;9.796;2022-12-18T06:11:07;9.87;;;8.10;;
75818;SDS011;64453;51.944;9.796;2022-12-18T06:13:34;11.20;;;8.83;;
75818;SDS011;64453;51.944;9.796;2022-12-18T06:16:02;10.87;;;7.93;;
75818;SDS011;64453;51.944;9.796;2022-12-18T06:18:31;9.40;;;8.43;;
75818;SDS011;64453;51.944;9.796;2022-12-18T06:20:58;11.60;;;8.13;;
75818;SDS011;64453;51.944;9.796;2022-12-18T06:23:27;9.50;;;8.50;;
75818;SDS011;64453;51.944;9.796;2022-12-18T06:25:54;9.23;;;7.97;;
75818;SDS011;64453;51.944;9.796;2022-12-18T06:28:21;9.37;;;7.90;;
75818;SDS011;64453;51.944;9.796;2022-12-18T06:30:48;9.57;;;7.30;;
75818;SDS011;64453;51.944;9.796;2022-12-18T06:33:16;8.73;;;7.83;;
75818;SDS011;64453;51.944;9.796;2022-12-18T06:35:44;8.73;;;7.93;;
75818;SDS011;64453;51.944;9.796;2022-12-18T06:38:11;10.10;;;8.57;;
75818;SDS011;64453;51.944;9.796;2022-12-18T06:40:39;8.60;;;7.30;;
75818;SDS011;64453;51.944;9.796;2022-12-18T06:43:06;9.37;;;8.10;;
75818;SDS011;64453;51.944;9.796;2022-12-18T06:45:34;10.13;;;7.97;;
75818;SDS011;64453;51.944;9.796;2022-12-18T06:48:01;11.37;;;8.67;;
75818;SDS011;64453;51.944;9.796;2022-12-18T06:50:29;8.90;;;8.00;;
75818;SDS011;64453;51.944;9.796;2022-12-18T06:52:57;8.60;;;7.40;;
75818;SDS011;64453;51.944;9.796;2022-12-18T06:55:24;11.30;;;8.30;;
75818;SDS011;64453;51.944;9.796;2022-12-18T06:57:51;8.37;;;7.50;;
75818;SDS011;64453;51.944;9.796;2022-12-18T07:00:18;8.40;;;7.60;;
75818;SDS011;64453;51.944;9.796;2022-12-18T07:02:45;9.03;;;8.13;;
75818;SDS011;64453;51.944;9.796;2022-12-18T07:05:12;9.33;;;8.27;;
75818;SDS011;64453;51.944;9.796;2022-12-18T07:07:38;8.97;;;8.07;;
75818;SDS011;64453;51.944;9.796;2022-12-18T07:10:07;10.07;;;8.10;;
75818;SDS011;64453;51.944;9.796;2022-12-18T07:12:35;9.10;;;8.20;;
75818;SDS011;64453;51.944;9.796;2022-12-18T07:15:02;9.77;;;7.97;;
75818;SDS011;64453;51.944;9.796;2022-12-18T07:17:30;9.63;;;8.20;;
75818;SDS011;64453;51.944;9.796;2022-12-18T07:19:57;11.80;;;8.70;;
75818;SDS011;64453;51.944;9.796;2022-12-18T07:22:24;10.20;;;8.60;;
75818;SDS011;64453;51.944;9.796;2022-12-18T07:24:51;10.07;;;8.47;;
75818;SDS011;64453;51.944;9.796;2022-12-18T07:27:20;9.77;;;8.40;;
75818;SDS011;64453;51.944;9.796;2022-12-18T07:29:47;8.50;;;7.60;;
75818;SDS011;64453;51.944;9.796;2022-12-18T07:32:14;8.97;;;7.90;;
75818;SDS011;64453;51.944;9.796;2022-12-18T07:34:41;9.27;;;8.37;;
75818;SDS011;64453;51.944;9.796;2022-12-18T07:37:08;9.57;;;8.57;;
75818;SDS011;64453;51.944;9.796;2022-12-18T07:39:35;9.03;;;8.13;;
75818;SDS011;64453;51.944;9.796;2022-12-18T07:42:02;10.27;;;8.07;;
75818;SDS011;64453;51.944;9.796;2022-12-18T07:44:49;9.50;;;8.40;;
75818;SDS011;64453;51.944;9.796;2022-12-18T07:47:15;10.20;;;8.50;;
75818;SDS011;64453;51.944;9.796;2022-12-18T07:49:42;10.40;;;8.50;;
75818;SDS011;64453;51.944;9.796;2022-12-18T07:52:09;13.30;;;9.17;;
75818;SDS011;64453;51.944;9.796;2022-12-18T07:54:37;9.73;;;8.73;;
75818;SDS011;64453;51.944;9.796;2022-12-18T07:57:05;10.70;;;8.30;;
75818;SDS011;64453;51.944;9.796;2022-12-18T07:59:32;9.17;;;7.87;;
75818;SDS011;64453;51.944;9.796;2022-12-18T08:02:00;10.43;;;8.13;;
75818;SDS011;64453;51.944;9.796;2022-12-18T08:04:27;12.63;;;10.20;;
75818;SDS011;64453;51.944;9.796;2022-12-18T08:06:54;19.83;;;13.23;;
75818;SDS011;64453;51.944;9.796;2022-12-18T08:09:21;17.73;;;12.67;;
75818;SDS011;64453;51.944;9.796;2022-12-18T08:11:48;18.70;;;12.10;;
75818;SDS011;64453;51.944;9.796;2022-12-18T08:14:16;16.53;;;11.80;;
75818;SDS011;64453;51.944;9.796;2022-12-18T08:16:43;16.60;;;12.10;;
75818;SDS011;64453;51.944;9.796;2022-12-18T08:19:12;16.93;;;10.60;;
75818;SDS011;64453;51.944;9.796;2022-12-18T08:21:39;14.47;;;9.20;;
75818;SDS011;64453;51.944;9.796;2022-12-18T08:24:06;10.87;;;8.90;;
75818;SDS011;64453;51.944;9.796;2022-12-18T08:26:34;11.70;;;10.13;;
75818;SDS011;64453;51.944;9.796;2022-12-18T08:29:01;13.43;;;10.20;;
75818;SDS011;64453;51.944;9.796;2022-12-18T08:31:29;17.00;;;13.47;;
75818;SDS011;64453;51.944;9.796;2022-12-18T08:33:57;16.43;;;13.97;;
75818;SDS011;64453;51.944;9.796;2022-12-18T08:36:26;24.20;;;17.07;;
75818;SDS011;64453;51.944;9.796;2022-12-18T08:38:53;24.10;;;17.70;;
75818;SDS011;64453;51.944;9.796;2022-12-18T08:41:21;30.97;;;21.33;;
75818;SDS011;64453;51.944;9.796;2022-12-18T08:43:48;47.13;;;29.40;;
75818;SDS011;64453;51.944;9.796;2022-12-18T08:46:34;39.83;;;27.17;;
75818;SDS011;64453;51.944;9.796;2022-12-18T08:49:03;36.13;;;25.00;;
75818;SDS011;64453;51.944;9.796;2022-12-18T08:51:32;27.43;;;19.80;;
75818;SDS011;64453;51.944;9.796;2022-12-18T08:54:00;27.63;;;20.10;;
75818;SDS011;64453;51.944;9.796;2022-12-18T08:56:27;29.87;;;22.53;;
75818;SDS011;64453;51.944;9.796;2022-12-18T08:58:55;28.20;;;20.97;;
75818;SDS011;64453;51.944;9.796;2022-12-18T09:01:22;23.90;;;18.83;;
75818;SDS011;64453;51.944;9.796;2022-12-18T09:03:50;25.50;;;19.93;;
75818;SDS011;64453;51.944;9.796;2022-12-18T09:06:18;27.70;;;19.87;;
75818;SDS011;64453;51.944;9.796;2022-12-18T09:08:48;34.00;;;24.30;;
75818;SDS011;64453;51.944;9.796;2022-12-18T09:11:18;31.90;;;23.40;;
75818;SDS011;64453;51.944;9.796;2022-12-18T09:13:48;30.77;;;23.80;;
75818;SDS011;64453;51.944;9.796;2022-12-18T09:16:16;32.83;;;24.70;;
75818;SDS011;64453;51.944;9.796;2022-12-18T09:18:44;29.80;;;23.70;;
75818;SDS011;64453;51.944;9.796;2022-12-18T09:21:12;31.90;;;24.03;;
75818;SDS011;64453;51.944;9.796;2022-12-18T09:23:41;25.50;;;21.70;;
75818;SDS011;64453;51.944;9.796;2022-12-18T09:26:10;31.23;;;24.07;;
75818;SDS011;64453;51.944;9.796;2022-12-18T09:28:38;26.17;;;21.50;;
75818;SDS011;64453;51.944;9.796;2022-12-18T09:31:05;25.87;;;22.40;;
75818;SDS011;64453;51.944;9.796;2022-12-18T09:33:34;25.37;;;20.67;;
75818;SDS011;64453;51.944;9.796;2022-12-18T09:36:02;23.47;;;19.93;;
75818;SDS011;64453;51.944;9.796;2022-12-18T09:38:34;20.83;;;18.73;;
75818;SDS011;64453;51.944;9.796;2022-12-18T09:41:03;19.97;;;17.00;;
75818;SDS011;64453;51.944;9.796;2022-12-18T09:43:42;18.17;;;16.27;;
75818;SDS011;64453;51.944;9.796;2022-12-18T09:46:15;18.10;;;15.40;;
75818;SDS011;64453;51.944;9.796;2022-12-18T09:48:47;22.87;;;20.43;;
75818;SDS011;64453;51.944;9.796;2022-12-18T09:51:18;24.67;;;20.73;;
75818;SDS011;64453;51.944;9.796;2022-12-18T09:53:50;18.10;;;14.70;;
75818;SDS011;64453;51.944;9.796;2022-12-18T09:56:21;10.40;;;9.30;;
75818;SDS011;64453;51.944;9.796;2022-12-18T09:58:53;8.87;;;8.07;;
75818;SDS011;64453;51.944;9.796;2022-12-18T10:01:24;10.70;;;9.70;;
75818;SDS011;64453;51.944;9.796;2022-12-18T10:03:53;10.57;;;9.40;;
75818;SDS011;64453;51.944;9.796;2022-12-18T10:06:22;9.10;;;8.10;;
75818;SDS011;64453;51.944;9.796;2022-12-18T10:08:56;10.33;;;9.20;;
75818;SDS011;64453;51.944;9.796;2022-12-18T10:11:33;10.47;;;8.93;;
75818;SDS011;64453;51.944;9.796;2022-12-18T10:14:11;9.30;;;8.40;;
75818;SDS011;64453;51.944;9.796;2022-12-18T10:16:47;9.53;;;8.53;;
75818;SDS011;64453;51.944;9.796;2022-12-18T10:19:29;9.73;;;8.73;;
75818;SDS011;64453;51.944;9.796;2022-12-18T10:22:10;10.30;;;8.83;;
75818;SDS011;64453;51.944;9.796;2022-12-18T10:24:54;9.80;;;8.20;;
75818;SDS011;64453;51.944;9.796;2022-12-18T10:27:27;8.77;;;7.90;;
75818;SDS011;64453;51.944;9.796;2022-12-18T10:29:57;9.10;;;8.17;;
75818;SDS011;64453;51.944;9.796;2022-12-18T10:32:25;10.07;;;8.27;;
75818;SDS011;64453;51.944;9.796;2022-12-18T10:34:55;9.60;;;8.70;;
75818;SDS011;64453;51.944;9.796;2022-12-18T10:37:24;8.70;;;7.80;;
75818;SDS011;64453;51.944;9.796;2022-12-18T10:40:09;9.43;;;8.40;;
75818;SDS011;64453;51.944;9.796;2022-12-18T10:42:39;8.43;;;7.63;;
75818;SDS011;64453;51.944;9.796;2022-12-18T10:45:11;7.77;;;7.07;;
75818;SDS011;64453;51.944;9.796;2022-12-18T10:47:43;8.20;;;7.40;;
75818;SDS011;64453;51.944;9.796;2022-12-18T10:50:18;6.90;;;6.30;;
75818;SDS011;64453;51.944;9.796;2022-12-18T10:52:55;6.57;;;5.97;;
75818;SDS011;64453;51.944;9.796;2022-12-18T10:55:24;6.90;;;6.27;;
75818;SDS011;64453;51.944;9.796;2022-12-18T10:58:05;6.70;;;6.10;;
75818;SDS011;64453;51.944;9.796;2022-12-18T11:00:45;6.27;;;5.67;;
75818;SDS011;64453;51.944;9.796;2022-12-18T11:03:32;6.03;;;5.53;;
75818;SDS011;64453;51.944;9.796;2022-12-18T11:06:02;7.10;;;6.50;;
75818;SDS011;64453;51.944;9.796;2022-12-18T11:08:32;7.37;;;6.67;;
75818;SDS011;64453;51.944;9.796;2022-12-18T11:10:59;8.10;;;7.30;;
75818;SDS011;64453;51.944;9.796;2022-12-18T11:13:27;9.23;;;7.73;;
75818;SDS011;64453;51.944;9.796;2022-12-18T11:15:58;8.90;;;7.20;;
75818;SDS011;64453;51.944;9.796;2022-12-18T11:18:26;8.73;;;7.93;;
75818;SDS011;64453;51.944;9.796;2022-12-18T11:20:56;7.87;;;7.17;;
75818;SDS011;64453;51.944;9.796;2022-12-18T11:23:26;7.63;;;6.60;;
75818;SDS011;64453;51.944;9.796;2022-12-18T11:25:55;9.20;;;8.30;;
75818;SDS011;64453;51.944;9.796;2022-12-18T11:28:25;8.23;;;7.43;;
75818;SDS011;64453;51.944;9.796;2022-12-18T11:31:11;14.80;;;11.10;;
75818;SDS011;64453;51.944;9.796;2022-12-18T11:33:47;11.63;;;9.60;;
75818;SDS011;64453;51.944;9.796;2022-12-18T11:36:22;9.03;;;8.10;;
75818;SDS011;64453;51.944;9.796;2022-12-18T11:38:50;9.00;;;6.67;;
75818;SDS011;64453;51.944;9.796;2022-12-18T11:41:22;8.60;;;7.27;;
75818;SDS011;64453;51.944;9.796;2022-12-18T11:44:15;5.60;;;5.10;;
75818;SDS011;64453;51.944;9.796;2022-12-18T11:46:51;6.13;;;5.53;;
75818;SDS011;64453;51.944;9.796;2022-12-18T11:49:22;6.80;;;6.10;;
75818;SDS011;64453;51.944;9.796;2022-12-18T11:51:55;6.77;;;6.20;;
75818;SDS011;64453;51.944;9.796;2022-12-18T11:54:26;6.57;;;5.93;;
75818;SDS011;64453;51.944;9.796;2022-12-18T11:56:55;6.93;;;6.23;;
75818;SDS011;64453;51.944;9.796;2022-12-18T11:59:33;6.97;;;6.33;;
75818;SDS011;64453;51.944;9.796;2022-12-18T12:02:17;8.07;;;7.30;;
75818;SDS011;64453;51.944;9.796;2022-12-18T12:05:16;9.70;;;8.17;;
75818;SDS011;64453;51.944;9.796;2022-12-18T12:08:06;12.60;;;9.77;;
75818;SDS011;64453;51.944;9.796;2022-12-18T12:10:45;7.90;;;7.07;;
75818;SDS011;64453;51.944;9.796;2022-12-18T12:13:24;7.33;;;6.63;;
75818;SDS011;64453;51.944;9.796;2022-12-18T12:16:09;7.10;;;6.40;;
75818;SDS011;64453;51.944;9.796;2022-12-18T12:18:49;6.67;;;6.17;;
75818;SDS011;64453;51.944;9.796;2022-12-18T12:21:34;6.03;;;5.60;;
75818;SDS011;64453;51.944;9.796;2022-12-18T12:24:10;6.73;;;6.03;;
75818;SDS011;64453;51.944;9.796;2022-12-18T12:26:55;6.60;;;6.00;;
75818;SDS011;64453;51.944;9.796;2022-12-18T12:29:32;6.20;;;5.53;;
75818;SDS011;64453;51.944;9.796;2022-12-18T12:32:17;6.93;;;6.23;;
75818;SDS011;64453;51.944;9.796;2022-12-18T12:34:59;6.50;;;5.90;;
75818;SDS011;64453;51.944;9.796;2022-12-18T12:37:44;7.20;;;6.57;;
75818;SDS011;64453;51.944;9.796;2022-12-18T12:40:23;6.23;;;5.63;;
75818;SDS011;64453;51.944;9.796;2022-12-18T12:42:54;7.43;;;6.60;;
75818;SDS011;64453;51.944;9.796;2022-12-18T12:45:39;8.27;;;6.80;;
75818;SDS011;64453;51.944;9.796;2022-12-18T12:48:15;8.17;;;7.47;;
75818;SDS011;64453;51.944;9.796;2022-12-18T12:50:50;9.57;;;8.70;;
75818;SDS011;64453;51.944;9.796;2022-12-18T12:53:21;13.27;;;11.90;;
75818;SDS011;64453;51.944;9.796;2022-12-18T12:55:53;9.00;;;8.20;;
75818;SDS011;64453;51.944;9.796;2022-12-18T12:58:23;6.93;;;6.37;;
75818;SDS011;64453;51.944;9.796;2022-12-18T13:01:07;7.00;;;6.30;;
75818;SDS011;64453;51.944;9.796;2022-12-18T13:03:42;8.57;;;6.47;;
75818;SDS011;64453;51.944;9.796;2022-12-18T13:06:25;8.00;;;6.97;;
75818;SDS011;64453;51.944;9.796;2022-12-18T13:09:06;7.23;;;6.57;;
75818;SDS011;64453;51.944;9.796;2022-12-18T13:11:37;8.33;;;7.53;;
75818;SDS011;64453;51.944;9.796;2022-12-18T13:14:24;7.07;;;6.47;;
75818;SDS011;64453;51.944;9.796;2022-12-18T13:20:04;6.63;;;6.03;;
75818;SDS011;64453;51.944;9.796;2022-12-18T13:22:36;7.50;;;6.77;;
75818;SDS011;64453;51.944;9.796;2022-12-18T13:28:06;7.20;;;6.00;;
75818;SDS011;64453;51.944;9.796;2022-12-18T13:30:44;7.43;;;6.83;;
75818;SDS011;64453;51.944;9.796;2022-12-18T13:36:25;5.97;;;5.47;;
75818;SDS011;64453;51.944;9.796;2022-12-18T13:39:20;5.97;;;5.47;;
75818;SDS011;64453;51.944;9.796;2022-12-18T13:48:19;4.47;;;4.07;;
75818;SDS011;64453;51.944;9.796;2022-12-18T13:50:50;7.00;;;6.40;;
75818;SDS011;64453;51.944;9.796;2022-12-18T13:53:23;7.17;;;6.57;;
75818;SDS011;64453;51.944;9.796;2022-12-18T13:55:56;5.67;;;5.27;;
75818;SDS011;64453;51.944;9.796;2022-12-18T13:58:23;7.77;;;7.00;;
75818;SDS011;64453;51.944;9.796;2022-12-18T14:00:50;15.10;;;11.10;;
75818;SDS011;64453;51.944;9.796;2022-12-18T14:03:19;14.97;;;10.80;;
75818;SDS011;64453;51.944;9.796;2022-12-18T14:05:53;7.50;;;6.80;;
75818;SDS011;64453;51.944;9.796;2022-12-18T14:08:25;7.20;;;6.60;;
75818;SDS011;64453;51.944;9.796;2022-12-18T14:11:00;7.83;;;7.10;;
75818;SDS011;64453;51.944;9.796;2022-12-18T14:13:30;6.30;;;5.67;;
75818;SDS011;64453;51.944;9.796;2022-12-18T14:16:00;5.80;;;5.30;;
75818;SDS011;64453;51.944;9.796;2022-12-18T14:18:32;5.30;;;4.80;;
75818;SDS011;64453;51.944;9.796;2022-12-18T14:21:14;4.87;;;4.57;;
75818;SDS011;64453;51.944;9.796;2022-12-18T14:23:46;5.87;;;5.20;;
75818;SDS011;64453;51.944;9.796;2022-12-18T14:26:21;5.73;;;5.20;;
75818;SDS011;64453;51.944;9.796;2022-12-18T14:28:53;5.93;;;5.43;;
75818;SDS011;64453;51.944;9.796;2022-12-18T14:31:21;6.40;;;5.83;;
75818;SDS011;64453;51.944;9.796;2022-12-18T14:33:50;19.30;;;13.37;;
75818;SDS011;64453;51.944;9.796;2022-12-18T14:36:18;47.97;;;23.97;;
75818;SDS011;64453;51.944;9.796;2022-12-18T14:38:49;20.40;;;13.20;;
75818;SDS011;64453;51.944;9.796;2022-12-18T14:41:18;6.33;;;5.20;;
75818;SDS011;64453;51.944;9.796;2022-12-18T14:43:49;4.83;;;4.43;;
75818;SDS011;64453;51.944;9.796;2022-12-18T14:46:25;5.87;;;5.13;;
75818;SDS011;64453;51.944;9.796;2022-12-18T14:48:58;5.40;;;4.90;;
75818;SDS011;64453;51.944;9.796;2022-12-18T14:51:29;5.33;;;4.70;;
75818;SDS011;64453;51.944;9.796;2022-12-18T14:53:58;4.07;;;3.77;;
75818;SDS011;64453;51.944;9.796;2022-12-18T14:56:29;4.37;;;4.00;;
75818;SDS011;64453;51.944;9.796;2022-12-18T14:58:58;5.27;;;4.80;;
75818;SDS011;64453;51.944;9.796;2022-12-18T15:01:27;5.83;;;5.33;;
75818;SDS011;64453;51.944;9.796;2022-12-18T15:03:57;6.30;;;5.80;;
75818;SDS011;64453;51.944;9.796;2022-12-18T15:06:30;4.70;;;4.30;;
75818;SDS011;64453;51.944;9.796;2022-12-18T15:09:00;6.80;;;6.20;;
75818;SDS011;64453;51.944;9.796;2022-12-18T15:11:44;42.30;;;28.33;;
75818;SDS011;64453;51.944;9.796;2022-12-18T15:14:22;23.37;;;15.00;;
75818;SDS011;64453;51.944;9.796;2022-12-18T15:17:02;36.37;;;25.17;;
75818;SDS011;64453;51.944;9.796;2022-12-18T15:19:34;8.17;;;6.83;;
75818;SDS011;64453;51.944;9.796;2022-12-18T15:22:11;5.93;;;5.43;;